sensor_id;sensor_type;location;lat;lon;timestamp;P1;durP1;ratioP1;P2;durP2;ratioP2
19830;SDS011;10076;52.008;4.708;2023-11-18T00:01:45;35.27;;;32.27;;
19830;SDS011;10076;52.008;4.708;2023-11-18T00:04:11;36.77;;;33.63;;
19830;SDS011;10076;52.008;4.708;2023-11-18T00:06:45;36.40;;;33.37;;
19830;SDS011;10076;52.008;4.708;2023-11-18T00:09:11;37.30;;;34.03;;
19830;SDS011;10076;52.008;4.708;2023-11-18T00:11:42;35.83;;;32.77;;
19830;SDS011;10076;52.008;4.708;2023-11-18T00:14:08;35.80;;;32.70;;
19830;SDS011;10076;52.008;4.708;2023-11-18T00:16:36;37.50;;;34.40;;
19830;SDS011;10076;52.008;4.708;2023-11-18T00:19:02;36.73;;;33.63;;
19830;SDS011;10076;52.008;4.708;2023-11-18T00:21:30;35.93;;;32.40;;
19830;SDS011;10076;52.008;4.708;2023-11-18T00:23:55;36.00;;;32.80;;
19830;SDS011;10076;52.008;4.708;2023-11-18T00:26:21;35.43;;;32.50;;
19830;SDS011;10076;52.008;4.708;2023-11-18T00:28:46;35.43;;;32.37;;
19830;SDS011;10076;52.008;4.708;2023-11-18T00:31:12;34.90;;;31.80;;
19830;SDS011;10076;52.008;4.708;2023-11-18T00:33:38;36.20;;;33.13;;
19830;SDS011;10076;52.008;4.708;2023-11-18T00:36:03;36.27;;;33.20;;
19830;SDS011;10076;52.008;4.708;2023-11-18T00:38:29;35.57;;;32.57;;
19830;SDS011;10076;52.008;4.708;2023-11-18T00:40:55;37.07;;;33.87;;
19830;SDS011;10076;52.008;4.708;2023-11-18T00:43:20;36.93;;;33.83;;
19830;SDS011;10076;52.008;4.708;2023-11-18T00:45:47;36.10;;;32.90;;
19830;SDS011;10076;52.008;4.708;2023-11-18T00:48:13;37.90;;;33.80;;
19830;SDS011;10076;52.008;4.708;2023-11-18T00:50:39;36.17;;;33.10;;
19830;SDS011;10076;52.008;4.708;2023-11-18T00:53:05;38.10;;;34.47;;
19830;SDS011;10076;52.008;4.708;2023-11-18T00:55:30;37.63;;;34.07;;
19830;SDS011;10076;52.008;4.708;2023-11-18T00:57:56;36.93;;;33.43;;
19830;SDS011;10076;52.008;4.708;2023-11-18T01:00:23;35.77;;;32.60;;
19830;SDS011;10076;52.008;4.708;2023-11-18T01:02:51;36.20;;;33.10;;
19830;SDS011;10076;52.008;4.708;2023-11-18T01:05:18;37.03;;;33.77;;
19830;SDS011;10076;52.008;4.708;2023-11-18T01:07:43;35.93;;;32.83;;
19830;SDS011;10076;52.008;4.708;2023-11-18T01:10:09;35.50;;;32.37;;
19830;SDS011;10076;52.008;4.708;2023-11-18T01:12:35;36.97;;;33.23;;
19830;SDS011;10076;52.008;4.708;2023-11-18T01:15:00;35.57;;;32.60;;
19830;SDS011;10076;52.008;4.708;2023-11-18T01:17:26;33.53;;;30.47;;
19830;SDS011;10076;52.008;4.708;2023-11-18T01:19:51;33.23;;;30.03;;
19830;SDS011;10076;52.008;4.708;2023-11-18T01:22:16;33.50;;;30.60;;
19830;SDS011;10076;52.008;4.708;2023-11-18T01:24:43;34.80;;;31.80;;
19830;SDS011;10076;52.008;4.708;2023-11-18T01:27:09;34.70;;;31.77;;
19830;SDS011;10076;52.008;4.708;2023-11-18T01:29:35;33.93;;;31.00;;
19830;SDS011;10076;52.008;4.708;2023-11-18T01:32:00;33.07;;;30.20;;
19830;SDS011;10076;52.008;4.708;2023-11-18T01:34:33;35.40;;;31.37;;
19830;SDS011;10076;52.008;4.708;2023-11-18T01:36:59;35.77;;;32.67;;
19830;SDS011;10076;52.008;4.708;2023-11-18T01:39:24;36.17;;;32.97;;
19830;SDS011;10076;52.008;4.708;2023-11-18T01:41:51;34.93;;;31.83;;
19830;SDS011;10076;52.008;4.708;2023-11-18T01:44:16;35.13;;;32.13;;
19830;SDS011;10076;52.008;4.708;2023-11-18T01:46:44;35.40;;;32.20;;
19830;SDS011;10076;52.008;4.708;2023-11-18T01:49:11;36.80;;;33.70;;
19830;SDS011;10076;52.008;4.708;2023-11-18T01:51:39;37.83;;;34.43;;
19830;SDS011;10076;52.008;4.708;2023-11-18T01:54:06;38.27;;;34.37;;
19830;SDS011;10076;52.008;4.708;2023-11-18T01:56:35;37.07;;;34.17;;
19830;SDS011;10076;52.008;4.708;2023-11-18T01:59:00;37.53;;;34.23;;
19830;SDS011;10076;52.008;4.708;2023-11-18T02:01:30;35.30;;;32.30;;
19830;SDS011;10076;52.008;4.708;2023-11-18T02:03:55;36.47;;;33.07;;
19830;SDS011;10076;52.008;4.708;2023-11-18T02:06:20;34.30;;;31.37;;
19830;SDS011;10076;52.008;4.708;2023-11-18T02:08:46;34.77;;;31.73;;
19830;SDS011;10076;52.008;4.708;2023-11-18T02:11:28;34.70;;;31.63;;
19830;SDS011;10076;52.008;4.708;2023-11-18T02:13:57;35.57;;;32.47;;
19830;SDS011;10076;52.008;4.708;2023-11-18T02:16:28;35.83;;;32.83;;
19830;SDS011;10076;52.008;4.708;2023-11-18T02:18:53;36.60;;;33.60;;
19830;SDS011;10076;52.008;4.708;2023-11-18T02:21:19;36.30;;;33.30;;
19830;SDS011;10076;52.008;4.708;2023-11-18T02:23:47;34.70;;;31.77;;
19830;SDS011;10076;52.008;4.708;2023-11-18T02:26:20;34.60;;;31.70;;
19830;SDS011;10076;52.008;4.708;2023-11-18T02:28:46;35.93;;;32.47;;
19830;SDS011;10076;52.008;4.708;2023-11-18T02:31:15;33.93;;;31.03;;
19830;SDS011;10076;52.008;4.708;2023-11-18T02:33:55;35.80;;;32.67;;
19830;SDS011;10076;52.008;4.708;2023-11-18T02:36:43;35.40;;;32.57;;
19830;SDS011;10076;52.008;4.708;2023-11-18T02:39:12;34.90;;;32.03;;
19830;SDS011;10076;52.008;4.708;2023-11-18T02:41:47;35.87;;;32.77;;
19830;SDS011;10076;52.008;4.708;2023-11-18T02:44:16;35.30;;;32.30;;
19830;SDS011;10076;52.008;4.708;2023-11-18T02:46:43;34.70;;;31.70;;
19830;SDS011;10076;52.008;4.708;2023-11-18T02:49:09;35.33;;;32.43;;
19830;SDS011;10076;52.008;4.708;2023-11-18T02:51:35;35.07;;;32.07;;
19830;SDS011;10076;52.008;4.708;2023-11-18T02:54:05;34.13;;;31.23;;
19830;SDS011;10076;52.008;4.708;2023-11-18T02:56:38;35.10;;;32.13;;
19830;SDS011;10076;52.008;4.708;2023-11-18T02:59:04;35.57;;;32.57;;
19830;SDS011;10076;52.008;4.708;2023-11-18T03:01:33;33.93;;;30.73;;
19830;SDS011;10076;52.008;4.708;2023-11-18T03:03:59;33.70;;;30.93;;
19830;SDS011;10076;52.008;4.708;2023-11-18T03:06:25;36.20;;;33.10;;
19830;SDS011;10076;52.008;4.708;2023-11-18T03:08:50;34.97;;;32.07;;
19830;SDS011;10076;52.008;4.708;2023-11-18T03:11:16;33.23;;;30.43;;
19830;SDS011;10076;52.008;4.708;2023-11-18T03:13:42;34.73;;;31.37;;
19830;SDS011;10076;52.008;4.708;2023-11-18T03:16:08;34.50;;;31.57;;
19830;SDS011;10076;52.008;4.708;2023-11-18T03:18:36;33.57;;;30.57;;
19830;SDS011;10076;52.008;4.708;2023-11-18T03:21:12;33.60;;;30.73;;
19830;SDS011;10076;52.008;4.708;2023-11-18T03:23:41;35.30;;;32.40;;
19830;SDS011;10076;52.008;4.708;2023-11-18T03:26:07;36.37;;;33.10;;
19830;SDS011;10076;52.008;4.708;2023-11-18T03:28:32;34.50;;;31.60;;
19830;SDS011;10076;52.008;4.708;2023-11-18T03:30:58;34.10;;;31.10;;
19830;SDS011;10076;52.008;4.708;2023-11-18T03:33:24;33.00;;;30.23;;
19830;SDS011;10076;52.008;4.708;2023-11-18T03:35:49;34.70;;;31.50;;
19830;SDS011;10076;52.008;4.708;2023-11-18T03:38:14;33.70;;;30.57;;
19830;SDS011;10076;52.008;4.708;2023-11-18T03:40:42;31.43;;;28.63;;
19830;SDS011;10076;52.008;4.708;2023-11-18T03:43:10;33.97;;;30.77;;
19830;SDS011;10076;52.008;4.708;2023-11-18T03:45:36;35.57;;;32.43;;
19830;SDS011;10076;52.008;4.708;2023-11-18T03:48:03;33.77;;;30.80;;
19830;SDS011;10076;52.008;4.708;2023-11-18T03:50:29;35.07;;;32.07;;
19830;SDS011;10076;52.008;4.708;2023-11-18T03:52:54;33.77;;;30.80;;
19830;SDS011;10076;52.008;4.708;2023-11-18T03:55:19;35.37;;;32.47;;
19830;SDS011;10076;52.008;4.708;2023-11-18T03:57:45;37.50;;;34.17;;
19830;SDS011;10076;52.008;4.708;2023-11-18T04:00:10;35.17;;;31.93;;
19830;SDS011;10076;52.008;4.708;2023-11-18T04:02:37;36.83;;;33.53;;
19830;SDS011;10076;52.008;4.708;2023-11-18T04:05:05;37.30;;;33.83;;
19830;SDS011;10076;52.008;4.708;2023-11-18T04:07:30;36.53;;;33.43;;
19830;SDS011;10076;52.008;4.708;2023-11-18T04:09:56;36.13;;;32.93;;
19830;SDS011;10076;52.008;4.708;2023-11-18T04:12:21;36.63;;;33.37;;
19830;SDS011;10076;52.008;4.708;2023-11-18T04:14:47;35.60;;;32.47;;
19830;SDS011;10076;52.008;4.708;2023-11-18T04:17:13;33.90;;;30.77;;
19830;SDS011;10076;52.008;4.708;2023-11-18T04:19:38;36.43;;;33.33;;
19830;SDS011;10076;52.008;4.708;2023-11-18T04:22:04;35.07;;;31.93;;
19830;SDS011;10076;52.008;4.708;2023-11-18T04:24:29;36.33;;;32.73;;
19830;SDS011;10076;52.008;4.708;2023-11-18T04:26:55;36.00;;;32.80;;
19830;SDS011;10076;52.008;4.708;2023-11-18T04:29:20;36.60;;;33.23;;
19830;SDS011;10076;52.008;4.708;2023-11-18T04:31:46;36.47;;;33.30;;
19830;SDS011;10076;52.008;4.708;2023-11-18T04:34:11;37.13;;;33.70;;
19830;SDS011;10076;52.008;4.708;2023-11-18T04:36:37;36.13;;;32.83;;
19830;SDS011;10076;52.008;4.708;2023-11-18T04:39:02;35.37;;;32.27;;
19830;SDS011;10076;52.008;4.708;2023-11-18T04:41:28;33.93;;;31.00;;
19830;SDS011;10076;52.008;4.708;2023-11-18T04:43:53;35.10;;;32.10;;
19830;SDS011;10076;52.008;4.708;2023-11-18T04:46:19;34.03;;;30.93;;
19830;SDS011;10076;52.008;4.708;2023-11-18T04:48:44;35.13;;;32.10;;
19830;SDS011;10076;52.008;4.708;2023-11-18T04:51:10;35.73;;;32.43;;
19830;SDS011;10076;52.008;4.708;2023-11-18T04:53:36;36.07;;;33.10;;
19830;SDS011;10076;52.008;4.708;2023-11-18T04:56:01;36.67;;;33.30;;
19830;SDS011;10076;52.008;4.708;2023-11-18T04:58:27;34.77;;;31.67;;
19830;SDS011;10076;52.008;4.708;2023-11-18T05:00:53;35.27;;;32.27;;
19830;SDS011;10076;52.008;4.708;2023-11-18T05:03:18;37.47;;;34.33;;
19830;SDS011;10076;52.008;4.708;2023-11-18T05:05:44;36.73;;;33.27;;
19830;SDS011;10076;52.008;4.708;2023-11-18T05:08:17;37.03;;;33.83;;
19830;SDS011;10076;52.008;4.708;2023-11-18T05:10:47;35.87;;;33.07;;
19830;SDS011;10076;52.008;4.708;2023-11-18T05:13:14;36.80;;;33.70;;
19830;SDS011;10076;52.008;4.708;2023-11-18T05:15:41;36.03;;;33.03;;
19830;SDS011;10076;52.008;4.708;2023-11-18T05:18:10;35.87;;;32.77;;
19830;SDS011;10076;52.008;4.708;2023-11-18T05:20:39;36.87;;;33.50;;
19830;SDS011;10076;52.008;4.708;2023-11-18T05:23:04;34.53;;;31.70;;
19830;SDS011;10076;52.008;4.708;2023-11-18T05:25:29;36.60;;;33.33;;
19830;SDS011;10076;52.008;4.708;2023-11-18T05:27:55;37.33;;;34.17;;
19830;SDS011;10076;52.008;4.708;2023-11-18T05:30:20;36.43;;;33.40;;
19830;SDS011;10076;52.008;4.708;2023-11-18T05:32:45;39.03;;;35.87;;
19830;SDS011;10076;52.008;4.708;2023-11-18T05:35:10;38.13;;;34.53;;
19830;SDS011;10076;52.008;4.708;2023-11-18T05:37:37;40.47;;;37.00;;
19830;SDS011;10076;52.008;4.708;2023-11-18T05:40:06;37.83;;;34.70;;
19830;SDS011;10076;52.008;4.708;2023-11-18T05:42:35;38.53;;;34.87;;
19830;SDS011;10076;52.008;4.708;2023-11-18T05:45:02;37.27;;;34.17;;
19830;SDS011;10076;52.008;4.708;2023-11-18T05:47:29;37.13;;;33.93;;
19830;SDS011;10076;52.008;4.708;2023-11-18T05:49:54;37.77;;;34.23;;
19830;SDS011;10076;52.008;4.708;2023-11-18T05:52:20;37.87;;;34.80;;
19830;SDS011;10076;52.008;4.708;2023-11-18T05:54:47;39.73;;;35.73;;
19830;SDS011;10076;52.008;4.708;2023-11-18T05:57:13;37.17;;;34.17;;
19830;SDS011;10076;52.008;4.708;2023-11-18T05:59:39;47.37;;;36.73;;
19830;SDS011;10076;52.008;4.708;2023-11-18T06:02:05;38.93;;;35.40;;
19830;SDS011;10076;52.008;4.708;2023-11-18T06:04:30;40.63;;;35.70;;
19830;SDS011;10076;52.008;4.708;2023-11-18T06:06:56;38.33;;;35.23;;
19830;SDS011;10076;52.008;4.708;2023-11-18T06:09:21;38.23;;;35.00;;
19830;SDS011;10076;52.008;4.708;2023-11-18T06:11:50;37.37;;;34.20;;
19830;SDS011;10076;52.008;4.708;2023-11-18T06:14:16;37.13;;;34.13;;
19830;SDS011;10076;52.008;4.708;2023-11-18T06:16:42;37.53;;;34.60;;
19830;SDS011;10076;52.008;4.708;2023-11-18T06:19:07;37.27;;;34.17;;
19830;SDS011;10076;52.008;4.708;2023-11-18T06:21:33;40.27;;;36.80;;
19830;SDS011;10076;52.008;4.708;2023-11-18T06:23:59;37.33;;;34.27;;
19830;SDS011;10076;52.008;4.708;2023-11-18T06:26:25;39.90;;;36.43;;
19830;SDS011;10076;52.008;4.708;2023-11-18T06:28:54;38.03;;;34.93;;
19830;SDS011;10076;52.008;4.708;2023-11-18T06:31:20;37.53;;;34.07;;
19830;SDS011;10076;52.008;4.708;2023-11-18T06:33:46;38.33;;;35.23;;
19830;SDS011;10076;52.008;4.708;2023-11-18T06:38:44;38.13;;;35.13;;
19830;SDS011;10076;52.008;4.708;2023-11-18T06:41:11;38.03;;;34.90;;
19830;SDS011;10076;52.008;4.708;2023-11-18T06:43:41;38.30;;;34.80;;
19830;SDS011;10076;52.008;4.708;2023-11-18T06:46:17;37.10;;;33.83;;
19830;SDS011;10076;52.008;4.708;2023-11-18T06:48:50;35.80;;;32.67;;
19830;SDS011;10076;52.008;4.708;2023-11-18T06:51:19;36.93;;;33.43;;
19830;SDS011;10076;52.008;4.708;2023-11-18T06:53:48;35.67;;;32.47;;
19830;SDS011;10076;52.008;4.708;2023-11-18T06:56:14;39.17;;;35.53;;
19830;SDS011;10076;52.008;4.708;2023-11-18T06:58:40;35.03;;;31.93;;
19830;SDS011;10076;52.008;4.708;2023-11-18T07:01:07;33.90;;;31.03;;
19830;SDS011;10076;52.008;4.708;2023-11-18T07:03:34;35.67;;;32.97;;
19830;SDS011;10076;52.008;4.708;2023-11-18T07:06:01;37.33;;;33.80;;
19830;SDS011;10076;52.008;4.708;2023-11-18T07:08:26;35.47;;;32.60;;
19830;SDS011;10076;52.008;4.708;2023-11-18T07:10:52;33.63;;;30.83;;
19830;SDS011;10076;52.008;4.708;2023-11-18T07:13:17;36.27;;;32.73;;
19830;SDS011;10076;52.008;4.708;2023-11-18T07:15:42;35.07;;;31.70;;
19830;SDS011;10076;52.008;4.708;2023-11-18T07:18:08;35.43;;;32.43;;
19830;SDS011;10076;52.008;4.708;2023-11-18T07:20:34;35.83;;;32.73;;
19830;SDS011;10076;52.008;4.708;2023-11-18T07:22:59;36.67;;;33.17;;
19830;SDS011;10076;52.008;4.708;2023-11-18T07:25:25;36.10;;;33.10;;
19830;SDS011;10076;52.008;4.708;2023-11-18T07:27:50;36.10;;;33.03;;
19830;SDS011;10076;52.008;4.708;2023-11-18T07:30:16;35.80;;;32.83;;
19830;SDS011;10076;52.008;4.708;2023-11-18T07:32:41;36.87;;;33.77;;
19830;SDS011;10076;52.008;4.708;2023-11-18T07:35:07;38.50;;;35.43;;
19830;SDS011;10076;52.008;4.708;2023-11-18T07:37:34;33.60;;;30.63;;
19830;SDS011;10076;52.008;4.708;2023-11-18T07:40:03;36.33;;;32.90;;
19830;SDS011;10076;52.008;4.708;2023-11-18T07:42:33;35.87;;;32.87;;
19830;SDS011;10076;52.008;4.708;2023-11-18T07:45:01;33.27;;;30.40;;
19830;SDS011;10076;52.008;4.708;2023-11-18T07:47:30;36.17;;;33.17;;
19830;SDS011;10076;52.008;4.708;2023-11-18T07:49:59;33.97;;;31.17;;
19830;SDS011;10076;52.008;4.708;2023-11-18T07:52:27;36.90;;;30.57;;
19830;SDS011;10076;52.008;4.708;2023-11-18T07:54:54;34.50;;;31.30;;
19830;SDS011;10076;52.008;4.708;2023-11-18T07:57:19;35.77;;;32.27;;
19830;SDS011;10076;52.008;4.708;2023-11-18T07:59:44;34.57;;;31.57;;
19830;SDS011;10076;52.008;4.708;2023-11-18T08:02:09;33.90;;;30.93;;
19830;SDS011;10076;52.008;4.708;2023-11-18T08:04:35;31.57;;;28.87;;
19830;SDS011;10076;52.008;4.708;2023-11-18T08:07:01;33.63;;;30.53;;
19830;SDS011;10076;52.008;4.708;2023-11-18T08:09:29;34.10;;;31.10;;
19830;SDS011;10076;52.008;4.708;2023-11-18T08:11:56;33.40;;;30.40;;
19830;SDS011;10076;52.008;4.708;2023-11-18T08:14:23;34.13;;;31.03;;
19830;SDS011;10076;52.008;4.708;2023-11-18T08:16:49;32.67;;;29.57;;
19830;SDS011;10076;52.008;4.708;2023-11-18T08:19:16;32.63;;;29.67;;
19830;SDS011;10076;52.008;4.708;2023-11-18T08:21:42;32.90;;;30.03;;
19830;SDS011;10076;52.008;4.708;2023-11-18T08:24:08;30.23;;;27.63;;
19830;SDS011;10076;52.008;4.708;2023-11-18T08:26:36;32.90;;;30.00;;
19830;SDS011;10076;52.008;4.708;2023-11-18T08:29:01;33.53;;;30.20;;
19830;SDS011;10076;52.008;4.708;2023-11-18T08:31:27;32.20;;;29.23;;
19830;SDS011;10076;52.008;4.708;2023-11-18T08:33:52;31.80;;;28.80;;
19830;SDS011;10076;52.008;4.708;2023-11-18T08:36:19;31.93;;;29.07;;
19830;SDS011;10076;52.008;4.708;2023-11-18T08:38:45;33.87;;;30.53;;
19830;SDS011;10076;52.008;4.708;2023-11-18T08:41:12;30.23;;;27.50;;
19830;SDS011;10076;52.008;4.708;2023-11-18T08:43:37;30.47;;;27.77;;
19830;SDS011;10076;52.008;4.708;2023-11-18T08:46:06;30.60;;;27.90;;
19830;SDS011;10076;52.008;4.708;2023-11-18T08:48:32;29.63;;;27.10;;
19830;SDS011;10076;52.008;4.708;2023-11-18T08:50:59;31.90;;;28.83;;
19830;SDS011;10076;52.008;4.708;2023-11-18T08:53:25;29.23;;;26.73;;
19830;SDS011;10076;52.008;4.708;2023-11-18T08:55:51;31.07;;;28.27;;
19830;SDS011;10076;52.008;4.708;2023-11-18T08:58:19;29.70;;;26.90;;
19830;SDS011;10076;52.008;4.708;2023-11-18T09:00:51;27.93;;;25.43;;
19830;SDS011;10076;52.008;4.708;2023-11-18T09:03:22;29.97;;;26.83;;
19830;SDS011;10076;52.008;4.708;2023-11-18T09:06:02;30.40;;;27.00;;
19830;SDS011;10076;52.008;4.708;2023-11-18T09:08:33;28.10;;;25.60;;
19830;SDS011;10076;52.008;4.708;2023-11-18T09:11:01;28.50;;;25.90;;
19830;SDS011;10076;52.008;4.708;2023-11-18T09:13:30;29.00;;;26.20;;
19830;SDS011;10076;52.008;4.708;2023-11-18T09:15:56;29.10;;;26.53;;
19830;SDS011;10076;52.008;4.708;2023-11-18T09:18:25;28.57;;;25.97;;
19830;SDS011;10076;52.008;4.708;2023-11-18T09:20:52;30.63;;;27.83;;
19830;SDS011;10076;52.008;4.708;2023-11-18T09:23:19;27.93;;;25.43;;
19830;SDS011;10076;52.008;4.708;2023-11-18T09:25:48;28.63;;;26.13;;
19830;SDS011;10076;52.008;4.708;2023-11-18T09:28:15;29.33;;;26.73;;
19830;SDS011;10076;52.008;4.708;2023-11-18T09:30:41;30.17;;;27.43;;
19830;SDS011;10076;52.008;4.708;2023-11-18T09:33:22;30.90;;;28.20;;
19830;SDS011;10076;52.008;4.708;2023-11-18T09:35:58;30.67;;;27.87;;
19830;SDS011;10076;52.008;4.708;2023-11-18T09:38:34;30.97;;;28.17;;
19830;SDS011;10076;52.008;4.708;2023-11-18T09:41:05;30.63;;;27.90;;
19830;SDS011;10076;52.008;4.708;2023-11-18T09:43:36;30.23;;;27.43;;
19830;SDS011;10076;52.008;4.708;2023-11-18T09:46:09;30.13;;;27.40;;
19830;SDS011;10076;52.008;4.708;2023-11-18T09:48:48;31.97;;;29.17;;
19830;SDS011;10076;52.008;4.708;2023-11-18T09:51:23;32.30;;;28.90;;
19830;SDS011;10076;52.008;4.708;2023-11-18T09:53:52;31.90;;;29.00;;
19830;SDS011;10076;52.008;4.708;2023-11-18T10:02:09;32.13;;;29.27;;
19830;SDS011;10076;52.008;4.708;2023-11-18T10:04:36;32.40;;;29.50;;
19830;SDS011;10076;52.008;4.708;2023-11-18T10:07:04;32.93;;;29.93;;
19830;SDS011;10076;52.008;4.708;2023-11-18T10:09:32;32.87;;;29.67;;
19830;SDS011;10076;52.008;4.708;2023-11-18T10:12:02;33.20;;;30.30;;
19830;SDS011;10076;52.008;4.708;2023-11-18T10:14:31;33.03;;;30.03;;
19830;SDS011;10076;52.008;4.708;2023-11-18T10:16:57;33.50;;;30.50;;
19830;SDS011;10076;52.008;4.708;2023-11-18T10:19:23;33.03;;;30.03;;
19830;SDS011;10076;52.008;4.708;2023-11-18T10:21:50;33.50;;;30.17;;
19830;SDS011;10076;52.008;4.708;2023-11-18T10:24:16;34.60;;;31.27;;
19830;SDS011;10076;52.008;4.708;2023-11-18T10:26:56;34.03;;;30.80;;
19830;SDS011;10076;52.008;4.708;2023-11-18T10:29:23;34.87;;;31.63;;
19830;SDS011;10076;52.008;4.708;2023-11-18T10:31:49;33.60;;;30.60;;
19830;SDS011;10076;52.008;4.708;2023-11-18T10:34:18;34.87;;;31.80;;
19830;SDS011;10076;52.008;4.708;2023-11-18T10:37:05;33.40;;;30.40;;
19830;SDS011;10076;52.008;4.708;2023-11-18T10:39:32;33.10;;;30.03;;
19830;SDS011;10076;52.008;4.708;2023-11-18T10:42:00;32.20;;;29.00;;
19830;SDS011;10076;52.008;4.708;2023-11-18T10:44:26;32.97;;;29.67;;
19830;SDS011;10076;52.008;4.708;2023-11-18T10:46:52;33.20;;;30.07;;
19830;SDS011;10076;52.008;4.708;2023-11-18T10:49:24;31.50;;;28.40;;
19830;SDS011;10076;52.008;4.708;2023-11-18T10:51:51;31.10;;;28.13;;
19830;SDS011;10076;52.008;4.708;2023-11-18T10:54:17;30.50;;;27.40;;
19830;SDS011;10076;52.008;4.708;2023-11-18T10:56:50;31.73;;;28.63;;
19830;SDS011;10076;52.008;4.708;2023-11-18T10:59:16;31.63;;;28.60;;
19830;SDS011;10076;52.008;4.708;2023-11-18T11:01:42;30.83;;;27.83;;
19830;SDS011;10076;52.008;4.708;2023-11-18T11:04:09;30.77;;;27.23;;
19830;SDS011;10076;52.008;4.708;2023-11-18T11:06:42;30.07;;;27.13;;
19830;SDS011;10076;52.008;4.708;2023-11-18T11:09:11;29.63;;;26.63;;
19830;SDS011;10076;52.008;4.708;2023-11-18T11:11:49;31.30;;;28.00;;
19830;SDS011;10076;52.008;4.708;2023-11-18T11:14:17;29.30;;;26.30;;
19830;SDS011;10076;52.008;4.708;2023-11-18T11:16:47;29.20;;;26.30;;
19830;SDS011;10076;52.008;4.708;2023-11-18T11:19:26;30.73;;;27.73;;
19830;SDS011;10076;52.008;4.708;2023-11-18T11:22:05;29.60;;;26.70;;
19830;SDS011;10076;52.008;4.708;2023-11-18T11:25:40;30.43;;;27.53;;
19830;SDS011;10076;52.008;4.708;2023-11-18T11:27:59;31.60;;;28.40;;
19830;SDS011;10076;52.008;4.708;2023-11-18T11:30:39;31.57;;;28.57;;
19830;SDS011;10076;52.008;4.708;2023-11-18T11:35:48;31.57;;;28.47;;
19830;SDS011;10076;52.008;4.708;2023-11-18T11:38:22;29.63;;;26.73;;
19830;SDS011;10076;52.008;4.708;2023-11-18T11:40:49;31.60;;;28.40;;
19830;SDS011;10076;52.008;4.708;2023-11-18T11:43:15;31.97;;;28.73;;
19830;SDS011;10076;52.008;4.708;2023-11-18T11:45:47;33.43;;;30.23;;
19830;SDS011;10076;52.008;4.708;2023-11-18T11:48:17;32.67;;;29.47;;
19830;SDS011;10076;52.008;4.708;2023-11-18T11:53:40;32.43;;;29.33;;
19830;SDS011;10076;52.008;4.708;2023-11-18T11:56:17;33.43;;;29.87;;
19830;SDS011;10076;52.008;4.708;2023-11-18T11:58:46;32.23;;;29.07;;
19830;SDS011;10076;52.008;4.708;2023-11-18T12:01:26;31.97;;;28.67;;
19830;SDS011;10076;52.008;4.708;2023-11-18T12:03:57;31.10;;;27.93;;
19830;SDS011;10076;52.008;4.708;2023-11-18T12:06:23;32.70;;;29.20;;
19830;SDS011;10076;52.008;4.708;2023-11-18T12:08:51;33.23;;;28.73;;
19830;SDS011;10076;52.008;4.708;2023-11-18T12:11:20;31.07;;;28.07;;
19830;SDS011;10076;52.008;4.708;2023-11-18T12:13:59;32.27;;;29.17;;
19830;SDS011;10076;52.008;4.708;2023-11-18T12:17:16;32.50;;;29.40;;
19830;SDS011;10076;52.008;4.708;2023-11-18T12:19:29;30.10;;;27.20;;
19830;SDS011;10076;52.008;4.708;2023-11-18T12:22:09;31.00;;;28.00;;
19830;SDS011;10076;52.008;4.708;2023-11-18T12:24:40;31.13;;;28.13;;
19830;SDS011;10076;52.008;4.708;2023-11-18T12:27:05;30.20;;;27.30;;
19830;SDS011;10076;52.008;4.708;2023-11-18T12:29:43;31.83;;;28.80;;
19830;SDS011;10076;52.008;4.708;2023-11-18T12:32:09;30.73;;;27.63;;
19830;SDS011;10076;52.008;4.708;2023-11-18T12:35:11;30.53;;;27.53;;
19830;SDS011;10076;52.008;4.708;2023-11-18T12:45:43;32.50;;;28.60;;
19830;SDS011;10076;52.008;4.708;2023-11-18T12:48:25;33.53;;;26.90;;
19830;SDS011;10076;52.008;4.708;2023-11-18T12:50:57;29.00;;;26.27;;
19830;SDS011;10076;52.008;4.708;2023-11-18T12:53:23;29.23;;;26.43;;
19830;SDS011;10076;52.008;4.708;2023-11-18T12:55:53;30.67;;;27.67;;
19830;SDS011;10076;52.008;4.708;2023-11-18T12:58:19;30.13;;;27.23;;
19830;SDS011;10076;52.008;4.708;2023-11-18T13:00:45;30.13;;;27.23;;
19830;SDS011;10076;52.008;4.708;2023-11-18T13:03:11;30.37;;;27.33;;
19830;SDS011;10076;52.008;4.708;2023-11-18T13:05:40;29.60;;;26.77;;
19830;SDS011;10076;52.008;4.708;2023-11-18T13:08:05;29.40;;;26.50;;
19830;SDS011;10076;52.008;4.708;2023-11-18T13:10:31;29.77;;;26.87;;
19830;SDS011;10076;52.008;4.708;2023-11-18T13:12:57;28.63;;;25.83;;
19830;SDS011;10076;52.008;4.708;2023-11-18T13:15:25;29.40;;;26.50;;
19830;SDS011;10076;52.008;4.708;2023-11-18T13:18:00;30.00;;;27.00;;
19830;SDS011;10076;52.008;4.708;2023-11-18T13:20:28;29.20;;;26.30;;
19830;SDS011;10076;52.008;4.708;2023-11-18T13:22:54;30.00;;;27.10;;
19830;SDS011;10076;52.008;4.708;2023-11-18T13:25:21;29.40;;;26.50;;
19830;SDS011;10076;52.008;4.708;2023-11-18T13:27:47;30.90;;;27.93;;
19830;SDS011;10076;52.008;4.708;2023-11-18T13:30:14;30.43;;;27.47;;
19830;SDS011;10076;52.008;4.708;2023-11-18T13:32:42;29.90;;;26.97;;
19830;SDS011;10076;52.008;4.708;2023-11-18T13:35:08;31.20;;;28.20;;
19830;SDS011;10076;52.008;4.708;2023-11-18T13:37:35;31.47;;;28.37;;
19830;SDS011;10076;52.008;4.708;2023-11-18T13:40:01;31.00;;;27.90;;
19830;SDS011;10076;52.008;4.708;2023-11-18T13:42:30;30.87;;;27.77;;
19830;SDS011;10076;52.008;4.708;2023-11-18T13:45:19;30.83;;;27.83;;
19830;SDS011;10076;52.008;4.708;2023-11-18T13:47:51;30.23;;;27.33;;
19830;SDS011;10076;52.008;4.708;2023-11-18T13:50:20;29.33;;;26.43;;
19830;SDS011;10076;52.008;4.708;2023-11-18T13:52:47;31.37;;;28.37;;
19830;SDS011;10076;52.008;4.708;2023-11-18T13:55:14;30.10;;;27.20;;
19830;SDS011;10076;52.008;4.708;2023-11-18T13:57:50;29.87;;;26.97;;
19830;SDS011;10076;52.008;4.708;2023-11-18T14:00:18;31.47;;;28.47;;
19830;SDS011;10076;52.008;4.708;2023-11-18T14:02:48;29.93;;;27.03;;
19830;SDS011;10076;52.008;4.708;2023-11-18T14:05:17;30.43;;;27.43;;
19830;SDS011;10076;52.008;4.708;2023-11-18T14:07:45;29.73;;;26.83;;
19830;SDS011;10076;52.008;4.708;2023-11-18T14:10:12;30.80;;;27.80;;
19830;SDS011;10076;52.008;4.708;2023-11-18T14:12:58;30.13;;;27.13;;
19830;SDS011;10076;52.008;4.708;2023-11-18T14:15:37;30.60;;;27.53;;
19830;SDS011;10076;52.008;4.708;2023-11-18T14:18:02;30.40;;;27.47;;
19830;SDS011;10076;52.008;4.708;2023-11-18T14:20:28;29.83;;;26.93;;
19830;SDS011;10076;52.008;4.708;2023-11-18T14:22:56;29.50;;;26.60;;
19830;SDS011;10076;52.008;4.708;2023-11-18T14:25:23;30.27;;;27.33;;
19830;SDS011;10076;52.008;4.708;2023-11-18T14:27:49;29.70;;;26.70;;
19830;SDS011;10076;52.008;4.708;2023-11-18T14:30:14;30.57;;;27.57;;
19830;SDS011;10076;52.008;4.708;2023-11-18T14:32:41;29.57;;;26.57;;
19830;SDS011;10076;52.008;4.708;2023-11-18T14:35:07;28.87;;;26.07;;
19830;SDS011;10076;52.008;4.708;2023-11-18T14:37:34;30.67;;;26.83;;
19830;SDS011;10076;52.008;4.708;2023-11-18T14:40:05;28.83;;;26.07;;
19830;SDS011;10076;52.008;4.708;2023-11-18T14:42:33;28.53;;;25.73;;
19830;SDS011;10076;52.008;4.708;2023-11-18T14:44:58;30.00;;;27.10;;
19830;SDS011;10076;52.008;4.708;2023-11-18T14:47:24;31.93;;;28.80;;
19830;SDS011;10076;52.008;4.708;2023-11-18T14:49:49;31.40;;;28.40;;